Time;durP1;ratioP1;P1;durP2;ratioP2;P2;SDS_P1;SDS_P2;PMS_P1;PMS_P2;Temp;Humidity;BMP_temperature;BMP_pressure;BME280_temperature;BME280_humidity;BME280_pressure;Samples;Min_cycle;Max_cycle;Signal;HPM_P1;HPM_P2
2022/10/08 00:02:42;;;;;;;10.00;8.90;;;12.60;99.90;13.50;97243.00;;;;4983959;28;20906;-89
2022/10/08 00:05:31;;;;;;;13.20;8.43;;;12.50;99.90;13.90;97254.00;;;;4991231;28;20198;-89
2022/10/08 00:08:20;;;;;;;14.40;9.57;;;12.50;99.90;13.90;97252.00;;;;4978009;28;20222;-88
2022/10/08 00:11:12;;;;;;;11.23;9.03;;;12.60;99.90;14.00;97252.00;;;;4988325;28;20198;-87
2022/10/08 00:14:01;;;;;;;10.13;8.97;;;12.60;99.90;13.80;97243.00;;;;4983408;28;20219;-87
2022/10/08 00:16:51;;;;;;;14.43;9.77;;;12.60;99.90;13.60;97237.00;;;;4980104;28;20569;-89
2022/10/08 00:19:40;;;;;;;13.57;9.43;;;12.70;99.90;13.60;97230.00;;;;4989584;28;20574;-88
2022/10/08 00:22:29;;;;;;;9.60;8.03;;;12.50;99.90;13.40;97228.00;;;;4989672;28;20222;-88
2022/10/08 00:25:18;;;;;;;10.40;9.30;;;12.40;99.90;13.40;97227.00;;;;4980570;28;20218;-89
2022/10/08 00:28:07;;;;;;;10.87;9.77;;;12.40;99.90;13.70;97230.00;;;;4981167;28;20211;-88
2022/10/08 00:30:56;;;;;;;10.70;8.37;;;12.40;99.90;13.60;97225.00;;;;4980504;28;20203;-87
2022/10/08 00:33:49;;;;;;;12.60;9.27;;;12.40;99.90;13.50;97220.00;;;;4987435;28;20926;-88
2022/10/08 00:36:40;;;;;;;11.17;8.30;;;12.40;99.90;13.70;97211.00;;;;4984076;28;20233;-88
2022/10/08 00:39:29;;;;;;;12.57;8.60;;;12.40;99.90;13.80;97219.00;;;;4988016;28;20288;-87
2022/10/08 00:42:18;;;;;;;15.63;9.33;;;12.50;99.90;13.80;97211.00;;;;4983940;28;20206;-88
2022/10/08 00:45:13;;;;;;;10.37;8.60;;;12.50;99.90;13.80;97211.00;;;;4976977;28;20207;-88
2022/10/08 00:48:02;;;;;;;12.13;9.17;;;12.50;99.90;14.00;97215.00;;;;4986000;28;20203;-88
2022/10/08 00:50:52;;;;;;;10.73;9.67;;;12.60;99.90;13.70;97206.00;;;;4983636;28;20230;-89
2022/10/08 00:53:42;;;;;;;13.87;8.73;;;12.60;99.90;13.50;97203.00;;;;4987959;28;20215;-89
2022/10/08 00:56:35;;;;;;;14.07;9.40;;;12.70;99.90;13.70;97202.00;;;;4986610;28;20219;-88
2022/10/08 00:59:25;;;;;;;10.17;9.00;;;12.50;99.90;13.80;97193.00;;;;4985348;28;20198;-88
2022/10/08 01:02:14;;;;;;;12.87;8.57;;;12.50;99.90;14.00;97194.00;;;;4987082;28;20238;-88
2022/10/08 01:05:04;;;;;;;12.37;8.93;;;12.50;99.90;14.00;97183.00;;;;4975575;28;20221;-88
2022/10/08 01:08:06;;;;;;;12.90;8.77;;;12.80;99.90;14.10;97185.00;;;;5025825;23;20272;-65
2022/10/08 01:11:12;;;;;;;16.50;9.27;;;12.70;99.90;14.10;97187.00;;;;5043024;28;20690;-65
2022/10/08 01:14:11;;;;;;;15.37;8.23;;;12.70;99.90;14.00;97177.00;;;;5042403;28;20227;-64
2022/10/08 01:17:07;;;;;;;9.63;8.63;;;12.70;99.90;13.90;97179.00;;;;5038802;28;20270;-65
2022/10/08 01:20:28;;;;;;;10.27;8.93;;;12.70;99.90;14.00;97186.00;;;;5044716;28;20258;-65
2022/10/08 01:24:13;;;;;;;11.03;8.13;;;12.70;99.90;14.20;97170.00;;;;5062401;23;20761;-69
2022/10/08 01:27:07;;;;;;;9.70;8.77;;;12.70;99.90;14.20;97172.00;;;;5004170;28;20241;-70
2022/10/08 01:29:59;;;;;;;9.47;8.50;;;12.80;99.90;14.10;97167.00;;;;4998048;28;20229;-69
2022/10/08 01:32:55;;;;;;;8.63;7.73;;;12.80;99.90;14.10;97175.00;;;;5006793;28;20700;-70
2022/10/08 01:35:49;;;;;;;9.50;8.13;;;12.80;99.90;14.00;97173.00;;;;4984978;28;20250;-69
2022/10/08 01:38:43;;;;;;;11.67;8.73;;;12.80;99.90;14.10;97162.00;;;;4981715;28;20269;-69
2022/10/08 01:41:33;;;;;;;11.97;8.77;;;12.80;99.90;14.00;97168.00;;;;4981713;28;20202;-70
2022/10/08 01:44:27;;;;;;;9.37;8.47;;;12.70;99.90;13.90;97170.00;;;;4987615;28;20262;-70
2022/10/08 01:47:22;;;;;;;14.27;7.93;;;12.70;99.90;13.90;97166.00;;;;4987870;28;20218;-69
2022/10/08 01:50:15;;;;;;;13.43;9.33;;;12.70;99.90;13.90;97161.00;;;;4983101;28;20246;-69
2022/10/08 01:53:10;;;;;;;13.47;8.53;;;12.70;99.90;14.00;97162.00;;;;4986629;28;20242;-69
2022/10/08 01:56:04;;;;;;;10.43;9.33;;;12.70;99.90;14.20;97163.00;;;;4982434;28;20261;-70
2022/10/08 01:58:58;;;;;;;16.33;8.63;;;12.70;99.90;14.10;97168.00;;;;4982173;28;20217;-69
2022/10/08 02:01:56;;;;;;;9.93;7.90;;;12.70;99.90;13.90;97148.00;;;;4984528;28;20253;-70
2022/10/08 02:04:47;;;;;;;9.30;8.40;;;12.70;99.90;13.90;97147.00;;;;4979001;28;20222;-70
2022/10/08 02:07:38;;;;;;;12.03;8.40;;;12.70;99.90;13.90;97142.00;;;;4989118;28;20254;-70
2022/10/08 02:10:27;;;;;;;11.40;8.13;;;12.70;99.90;13.70;97145.00;;;;4987322;28;20203;-70
2022/10/08 02:13:16;;;;;;;11.97;7.97;;;12.60;99.90;13.30;97140.00;;;;4986991;28;20253;-70
2022/10/08 02:16:10;;;;;;;11.43;8.70;;;12.50;99.90;13.40;97137.00;;;;4983548;28;20257;-69
2022/10/08 02:19:07;;;;;;;9.97;8.80;;;12.40;99.90;13.20;97130.00;;;;4982860;28;20195;-70
2022/10/08 02:22:01;;;;;;;9.93;8.60;;;12.30;99.90;13.30;97136.00;;;;4977494;28;20207;-70
2022/10/08 02:24:56;;;;;;;11.27;8.50;;;12.20;99.90;13.50;97136.00;;;;4986802;28;20245;-69
2022/10/08 02:28:05;;;;;;;10.43;9.20;;;12.30;99.90;13.30;97134.00;;;;4978911;28;20218;-70
2022/10/08 02:31:00;;;;;;;11.97;9.80;;;12.30;99.90;13.10;97135.00;;;;4986405;28;20195;-70
2022/10/08 02:33:55;;;;;;;10.77;9.17;;;12.20;99.90;13.20;97133.00;;;;4986192;28;20289;-70
2022/10/08 02:36:48;;;;;;;11.93;9.30;;;12.20;99.90;13.20;97127.00;;;;4986304;28;20228;-69
2022/10/08 02:39:59;;;;;;;9.93;8.50;;;12.10;99.90;13.10;97134.00;;;;4991137;28;20214;-69
2022/10/08 02:42:55;;;;;;;10.37;8.27;;;12.10;99.90;12.70;97126.00;;;;4981630;28;20213;-70
2022/10/08 02:45:47;;;;;;;10.97;8.30;;;12.00;99.90;12.90;97125.00;;;;4987230;28;20203;-71
2022/10/08 02:48:41;;;;;;;8.90;7.93;;;12.00;99.90;13.10;97131.00;;;;4976206;28;20203;-72
2022/10/08 02:51:32;;;;;;;10.60;9.47;;;12.00;99.90;12.70;97129.00;;;;4985237;28;20199;-72
2022/10/08 02:54:23;;;;;;;10.87;9.77;;;12.00;99.90;12.90;97128.00;;;;4982414;28;20300;-70
2022/10/08 02:57:18;;;;;;;17.13;9.00;;;12.00;99.90;13.00;97122.00;;;;4980564;28;20219;-70
2022/10/08 03:00:09;;;;;;;10.90;9.80;;;12.00;99.90;12.80;97122.00;;;;4985471;28;20203;-72
2022/10/08 03:03:06;;;;;;;11.50;9.10;;;12.00;99.90;12.80;97122.00;;;;4986590;28;20263;-69
2022/10/08 03:05:56;;;;;;;17.10;9.90;;;11.90;99.90;13.00;97120.00;;;;4986616;28;20293;-69
2022/10/08 03:08:49;;;;;;;15.43;10.77;;;12.00;99.90;12.90;97119.00;;;;4990791;28;20201;-68
2022/10/08 03:11:38;;;;;;;14.73;10.53;;;12.00;99.90;13.00;97125.00;;;;4987907;28;20253;-69
2022/10/08 03:14:29;;;;;;;11.33;10.17;;;12.00;99.90;13.10;97126.00;;;;4989247;28;20328;-70
2022/10/08 03:17:22;;;;;;;15.57;10.93;;;12.00;99.90;13.40;97132.00;;;;4978376;28;20206;-69
2022/10/08 03:20:12;;;;;;;14.43;9.53;;;12.10;99.90;13.40;97124.00;;;;4980914;28;20557;-70
2022/10/08 03:23:01;;;;;;;10.97;9.73;;;12.20;99.90;13.30;97119.00;;;;4988931;28;20210;-70
2022/10/08 03:25:50;;;;;;;9.63;8.13;;;12.20;99.90;13.10;97121.00;;;;4990202;28;20553;-70
2022/10/08 03:28:39;;;;;;;12.37;9.17;;;12.20;99.90;13.00;97110.00;;;;4982006;28;20203;-70
2022/10/08 03:31:29;;;;;;;10.47;7.93;;;12.10;99.90;12.80;97122.00;;;;4979716;28;20268;-70
2022/10/08 03:34:18;;;;;;;10.20;8.77;;;12.00;99.90;12.80;97111.00;;;;4988076;28;20226;-71
2022/10/08 03:37:06;;;;;;;10.80;9.73;;;12.00;99.90;13.30;97118.00;;;;4986136;28;20199;-71
2022/10/08 03:39:55;;;;;;;14.10;9.57;;;12.00;99.90;13.40;97128.00;;;;4985220;28;20214;-70
2022/10/08 03:42:44;;;;;;;20.53;10.30;;;12.10;99.90;13.50;97119.00;;;;4990270;28;20269;-70
2022/10/08 03:45:32;;;;;;;10.10;8.60;;;12.10;99.90;13.40;97111.00;;;;4977055;28;20203;-70
2022/10/08 03:48:23;;;;;;;13.03;9.27;;;12.10;99.90;13.20;97110.00;;;;4973810;28;20270;-70
2022/10/08 03:51:14;;;;;;;11.23;9.97;;;12.10;99.90;13.20;97120.00;;;;4989821;28;20214;-70
2022/10/08 03:54:03;;;;;;;14.47;10.43;;;12.10;99.90;13.30;97124.00;;;;4985782;28;20226;-71
2022/10/08 03:56:51;;;;;;;12.47;9.50;;;12.10;99.90;13.60;97119.00;;;;4983766;28;20626;-71
2022/10/08 03:59:40;;;;;;;11.23;9.93;;;12.20;99.90;13.40;97115.00;;;;4982790;28;20234;-70
2022/10/08 04:02:29;;;;;;;17.13;9.13;;;12.20;99.90;13.10;97113.00;;;;4980804;28;20328;-70
2022/10/08 04:05:19;;;;;;;10.33;9.23;;;12.20;99.90;13.00;97113.00;;;;4991418;28;20218;-71
2022/10/08 04:08:07;;;;;;;11.53;8.87;;;12.10;99.90;13.00;97115.00;;;;4992326;28;20289;-69
2022/10/08 04:10:56;;;;;;;14.30;12.47;;;13.60;99.90;13.10;97113.00;;;;4987260;28;20253;-70
2022/10/08 04:13:45;;;;;;;11.00;9.53;;;12.10;99.90;13.10;97113.00;;;;4989396;28;20261;-69
2022/10/08 04:16:34;;;;;;;10.53;9.43;;;12.10;99.90;13.00;97123.00;;;;4990683;28;20239;-72
2022/10/08 04:19:23;;;;;;;12.60;10.17;;;12.10;99.90;13.20;97120.00;;;;4987574;28;20690;-70
2022/10/08 04:22:13;;;;;;;11.40;9.50;;;12.10;99.90;13.50;97118.00;;;;4991988;28;20281;-70
2022/10/08 04:25:01;;;;;;;14.67;8.90;;;12.10;99.90;13.40;97127.00;;;;4991697;28;20234;-69
2022/10/08 04:27:50;;;;;;;12.93;8.97;;;12.10;99.90;13.20;97116.00;;;;4989256;28;20246;-70
2022/10/08 04:30:39;;;;;;;12.10;8.67;;;12.10;99.90;13.40;97125.00;;;;4984504;28;20206;-70
2022/10/08 04:33:29;;;;;;;10.90;9.50;;;12.10;99.90;13.40;97117.00;;;;4990312;28;20293;-70
2022/10/08 04:36:20;;;;;;;11.37;9.77;;;12.10;99.90;13.50;97119.00;;;;4990279;28;20651;-69
2022/10/08 04:39:10;;;;;;;11.53;8.83;;;12.10;99.90;13.30;97120.00;;;;4991167;28;20273;-69
2022/10/08 04:41:59;;;;;;;8.93;7.97;;;12.10;99.90;13.30;97117.00;;;;4992351;28;20276;-70
2022/10/08 04:44:48;;;;;;;9.10;8.23;;;12.10;99.90;13.30;97121.00;;;;4990951;28;20222;-70
2022/10/08 04:47:36;;;;;;;9.47;8.47;;;12.10;99.90;13.10;97115.00;;;;4986540;28;20257;-70
2022/10/08 04:50:25;;;;;;;8.27;7.43;;;12.00;99.90;13.20;97123.00;;;;4991029;28;20694;-70
2022/10/08 04:53:14;;;;;;;11.30;8.37;;;12.00;99.90;13.00;97122.00;;;;4991757;28;20619;-70
2022/10/08 04:56:14;;;;;;;10.07;9.03;;;11.90;99.90;12.90;97117.00;;;;4989412;28;20214;-70
2022/10/08 04:59:03;;;;;;;9.03;8.13;;;11.90;99.90;12.70;97118.00;;;;4989875;28;20337;-69
2022/10/08 05:01:55;;;;;;;10.33;8.47;;;11.80;99.90;12.80;97122.00;;;;4991268;28;20202;-70
2022/10/08 05:04:44;;;;;;;9.87;7.60;;;11.70;99.90;12.80;97130.00;;;;4983810;28;20239;-70
2022/10/08 05:07:33;;;;;;;11.57;8.23;;;11.70;99.90;12.60;97126.00;;;;4987709;28;20757;-70
2022/10/08 05:10:22;;;;;;;14.13;10.87;;;11.60;99.90;12.40;97127.00;;;;4990637;28;20242;-70
2022/10/08 05:13:12;;;;;;;12.97;11.57;;;11.50;99.90;12.40;97120.00;;;;4990840;28;20202;-70
2022/10/08 05:16:04;;;;;;;21.77;16.57;;;11.50;99.90;12.60;97130.00;;;;4983704;28;20203;-70
2022/10/08 05:18:53;;;;;;;21.80;17.63;;;11.40;99.90;12.60;97133.00;;;;4985859;28;20199;-70
2022/10/08 05:21:42;;;;;;;15.87;13.23;;;11.40;99.90;12.40;97125.00;;;;4990249;28;20682;-70
2022/10/08 05:24:30;;;;;;;10.67;9.57;;;11.30;99.90;12.10;97129.00;;;;4989802;28;20243;-70
2022/10/08 05:27:19;;;;;;;10.23;8.13;;;11.30;99.90;11.80;97128.00;;;;4988063;28;20239;-71
2022/10/08 05:30:11;;;;;;;11.03;8.27;;;11.20;99.90;12.00;97131.00;;;;4996212;28;20269;-71
2022/10/08 05:33:00;;;;;;;10.17;9.03;;;11.10;99.90;12.10;97134.00;;;;4990321;28;20214;-71
2022/10/08 05:35:48;;;;;;;9.43;8.17;;;11.10;99.90;12.10;97124.00;;;;4986237;28;20260;-71
2022/10/08 05:38:37;;;;;;;10.27;8.60;;;11.10;99.90;12.30;97115.00;;;;4982124;28;20226;-71
2022/10/08 05:41:28;;;;;;;9.57;8.50;;;11.10;99.90;12.50;97124.00;;;;4990017;28;20202;-71
2022/10/08 05:44:16;;;;;;;9.93;8.63;;;11.10;99.90;12.30;97120.00;;;;4990193;28;20305;-71
2022/10/08 05:47:07;;;;;;;10.80;8.10;;;11.10;99.90;12.40;97126.00;;;;4988787;28;20230;-71
2022/10/08 05:49:56;;;;;;;14.40;8.90;;;11.20;99.90;12.70;97132.00;;;;4990251;28;20339;-71
2022/10/08 05:52:44;;;;;;;10.00;7.47;;;11.30;99.90;12.60;97131.00;;;;4977301;28;20198;-71
2022/10/08 05:55:33;;;;;;;9.30;7.97;;;11.30;99.90;12.80;97137.00;;;;4990276;28;20238;-70
2022/10/08 05:58:21;;;;;;;7.70;7.00;;;11.40;99.90;12.50;97146.00;;;;4982890;28;20659;-70
2022/10/08 06:01:15;;;;;;;8.60;7.57;;;11.40;99.90;12.60;97146.00;;;;4986603;28;20577;-70
2022/10/08 06:04:05;;;;;;;8.63;7.07;;;11.40;99.90;12.60;97148.00;;;;4987634;28;20870;-70
2022/10/08 06:06:55;;;;;;;10.50;7.87;;;11.40;99.90;12.50;97148.00;;;;4984280;28;20209;-69
2022/10/08 06:09:44;;;;;;;8.83;5.93;;;11.40;99.90;12.50;97146.00;;;;4989422;28;20214;-70
2022/10/08 06:12:33;;;;;;;8.80;7.43;;;11.40;99.90;12.60;97149.00;;;;4981460;28;20265;-70
2022/10/08 06:15:22;;;;;;;7.77;6.67;;;11.40;99.90;12.60;97154.00;;;;4988776;28;20210;-70
2022/10/08 06:18:11;;;;;;;7.90;6.67;;;11.40;99.90;12.80;97159.00;;;;4987019;28;20242;-70
2022/10/08 06:21:04;;;;;;;9.73;7.80;;;11.50;99.90;12.70;97154.00;;;;4985302;28;20293;-70
2022/10/08 06:23:56;;;;;;;14.60;7.57;;;11.50;99.90;12.90;97156.00;;;;4990142;28;20230;-70
2022/10/08 06:26:45;;;;;;;11.97;7.83;;;11.60;99.90;13.40;97163.00;;;;4984240;28;20210;-70
2022/10/08 06:29:34;;;;;;;9.60;7.67;;;11.70;99.90;13.30;97160.00;;;;4986362;28;20696;-70
2022/10/08 06:32:23;;;;;;;9.23;6.73;;;11.80;99.90;13.40;97165.00;;;;4989476;28;20254;-70
2022/10/08 06:35:11;;;;;;;12.67;7.17;;;11.90;99.90;13.50;97173.00;;;;4983954;28;20223;-70
2022/10/08 06:38:02;;;;;;;8.47;7.57;;;12.00;99.90;13.30;97163.00;;;;4978313;28;20785;-70
2022/10/08 06:40:51;;;;;;;6.83;6.23;;;12.10;99.90;13.20;97166.00;;;;4986262;28;20206;-70
2022/10/08 06:43:39;;;;;;;11.07;6.87;;;12.10;99.90;13.10;97174.00;;;;4988938;28;20227;-70
2022/10/08 06:46:30;;;;;;;7.63;6.63;;;12.10;99.90;13.40;97170.00;;;;4982249;28;20214;-70
2022/10/08 06:49:18;;;;;;;7.43;6.13;;;12.10;99.90;13.60;97165.00;;;;4979964;28;20229;-70
2022/10/08 06:52:07;;;;;;;9.47;7.07;;;12.30;99.90;13.60;97171.00;;;;4989282;28;20230;-70
2022/10/08 06:54:57;;;;;;;11.40;7.20;;;12.30;99.90;13.80;97168.00;;;;4982605;28;20230;-70
2022/10/08 06:57:46;;;;;;;6.63;6.07;;;12.40;99.90;13.80;97172.00;;;;4986579;28;20198;-70
2022/10/08 07:00:35;;;;;;;8.43;7.63;;;12.50;99.90;13.80;97169.00;;;;4988004;28;20223;-69
2022/10/08 07:03:23;;;;;;;10.00;7.20;;;12.60;99.90;13.80;97173.00;;;;4989383;28;20218;-69
2022/10/08 07:06:13;;;;;;;15.37;10.07;;;12.60;99.90;14.00;97171.00;;;;4986943;28;20265;-69
2022/10/08 07:09:03;;;;;;;28.50;16.73;;;12.70;99.90;14.20;97177.00;;;;4988336;28;20305;-69
2022/10/08 07:11:53;;;;;;;26.00;16.00;;;12.80;99.90;14.30;97171.00;;;;4983624;28;20202;-69
2022/10/08 07:14:42;;;;;;;16.67;10.03;;;12.90;99.90;14.60;97179.00;;;;4984111;28;20230;-69
2022/10/08 07:17:30;;;;;;;10.13;6.97;;;13.10;99.90;14.90;97183.00;;;;4987584;28;20195;-69
2022/10/08 07:20:19;;;;;;;9.80;7.00;;;13.30;99.90;14.60;97187.00;;;;4985240;28;20219;-70
2022/10/08 07:23:09;;;;;;;7.60;6.80;;;13.30;99.90;14.30;97176.00;;;;4985027;28;20199;-69
2022/10/08 07:26:09;;;;;;;8.50;7.47;;;13.30;99.90;14.60;97173.00;;;;5004475;23;20267;-84
2022/10/08 07:29:07;;;;;;;6.70;6.03;;;13.40;99.90;14.70;97171.00;;;;5022086;28;20224;-86
2022/10/08 07:31:55;;;;;;;6.60;5.90;;;13.40;99.90;15.00;97178.00;;;;5024022;28;20198;-85
2022/10/08 07:34:44;;;;;;;5.97;5.37;;;13.50;99.90;15.00;97175.00;;;;5013008;28;20743;-85
2022/10/08 07:37:33;;;;;;;8.97;5.53;;;13.70;99.90;15.50;97178.00;;;;5028787;28;20228;-85
2022/10/08 07:40:21;;;;;;;6.37;5.77;;;13.80;99.90;15.60;97176.00;;;;5027792;28;20201;-85
2022/10/08 07:43:10;;;;;;;5.80;5.20;;;14.00;99.90;15.70;97183.00;;;;5027351;28;20230;-86
2022/10/08 07:46:00;;;;;;;6.77;4.67;;;14.10;99.90;16.00;97177.00;;;;5023761;28;20201;-85
2022/10/08 07:48:49;;;;;;;8.00;7.03;;;14.30;99.90;16.10;97183.00;;;;5022053;28;20228;-86
2022/10/08 07:51:40;;;;;;;6.33;5.63;;;14.40;99.90;16.60;97179.00;;;;5031138;28;20271;-86
2022/10/08 07:54:29;;;;;;;8.80;6.00;;;14.70;99.90;16.70;97183.00;;;;5033547;28;20252;-85
2022/10/08 07:57:17;;;;;;;8.67;5.57;;;14.90;99.90;16.90;97183.00;;;;5023935;28;20209;-86
2022/10/08 08:00:08;;;;;;;6.27;5.57;;;15.10;99.90;17.30;97186.00;;;;5029266;28;20702;-86
2022/10/08 08:02:58;;;;;;;8.17;6.07;;;15.40;99.90;17.10;97193.00;;;;5023148;28;20213;-84
2022/10/08 08:05:47;;;;;;;6.43;5.70;;;15.50;99.90;17.10;97186.00;;;;5025675;28;20686;-85
2022/10/08 08:08:38;;;;;;;7.37;5.90;;;15.60;99.90;17.30;97179.00;;;;5029364;28;20225;-86
2022/10/08 08:11:27;;;;;;;7.93;6.30;;;15.70;99.90;17.40;97181.00;;;;5026516;28;20256;-86
2022/10/08 08:14:18;;;;;;;9.40;5.33;;;15.80;99.90;17.50;97178.00;;;;5026824;28;20292;-86
2022/10/08 08:17:07;;;;;;;8.90;5.43;;;15.90;99.90;17.60;97180.00;;;;5036894;28;20200;-86
2022/10/08 08:19:57;;;;;;;7.20;5.33;;;16.00;99.90;17.50;97181.00;;;;5021521;28;20202;-86
2022/10/08 08:22:46;;;;;;;6.80;5.23;;;16.10;99.90;17.90;97175.00;;;;5020653;28;20640;-85
2022/10/08 08:25:35;;;;;;;9.57;5.00;;;16.20;99.90;18.20;97174.00;;;;5031538;28;20213;-86
2022/10/08 08:28:23;;;;;;;6.60;4.90;;;16.40;99.90;18.20;97171.00;;;;5029334;28;20702;-86
2022/10/08 08:31:15;;;;;;;6.00;5.40;;;16.60;99.90;18.50;97182.00;;;;5028443;28;20194;-86
2022/10/08 08:34:07;;;;;;;5.77;5.00;;;16.70;99.90;19.10;97182.00;;;;5028105;28;20258;-86
2022/10/08 08:36:59;;;;;;;6.13;5.53;;;17.00;99.90;19.30;97175.00;;;;5032339;28;20200;-86
2022/10/08 08:39:48;;;;;;;5.70;4.70;;;17.30;99.90;19.40;97178.00;;;;5027448;28;20196;-86
2022/10/08 08:42:50;;;;;;;10.10;4.50;;;17.40;99.90;19.70;97176.00;;;;5027237;28;20201;-86
2022/10/08 08:45:43;;;;;;;6.93;4.80;;;17.90;99.90;20.10;97183.00;;;;5029132;28;20693;-87
2022/10/08 08:48:37;;;;;;;4.70;4.20;;;17.70;99.90;20.20;97183.00;;;;5029563;28;20201;-88
2022/10/08 08:51:25;;;;;;;4.23;3.83;;;18.10;99.90;20.00;97190.00;;;;5038536;28;20236;-88
2022/10/08 08:54:15;;;;;;;8.33;4.47;;;18.20;99.90;19.80;97190.00;;;;5031897;28;20231;-88
2022/10/08 08:57:22;;;;;;;6.90;4.73;;;18.20;99.90;20.00;97185.00;;;;5029878;28;20257;-88
2022/10/08 09:00:16;;;;;;;5.50;5.00;;;18.20;99.90;20.10;97179.00;;;;5030394;28;20201;-88
2022/10/08 09:03:17;;;;;;;4.87;4.03;;;18.40;99.90;20.50;97180.00;;;;5024439;28;20380;-87
2022/10/08 09:06:10;;;;;;;6.93;4.83;;;18.50;99.90;20.70;97179.00;;;;5027673;28;20212;-87
2022/10/08 09:09:04;;;;;;;5.20;4.53;;;18.70;99.90;20.60;97185.00;;;;5024122;28;20217;-87
2022/10/08 09:11:54;;;;;;;7.53;5.13;;;18.80;99.90;20.50;97183.00;;;;5027994;28;20213;-88
2022/10/08 09:14:49;;;;;;;6.27;5.17;;;18.90;99.90;20.60;97185.00;;;;5024116;28;20226;-87
2022/10/08 09:17:41;;;;;;;11.23;4.60;;;18.90;99.90;21.20;97189.00;;;;5024728;28;20459;-87
2022/10/08 09:20:30;;;;;;;6.67;4.80;;;19.10;99.90;21.20;97185.00;;;;5030510;28;20280;-87
2022/10/08 09:23:22;;;;;;;8.60;4.97;;;19.30;99.90;21.30;97188.00;;;;5032338;28;20222;-87
2022/10/08 09:26:17;;;;;;;7.03;4.93;;;19.50;99.90;21.90;97183.00;;;;5036118;28;20204;-87
2022/10/08 09:29:08;;;;;;;9.07;4.67;;;19.70;99.90;21.90;97191.00;;;;5038025;28;20223;-88
2022/10/08 09:31:57;;;;;;;4.70;4.30;;;19.80;99.90;21.80;97187.00;;;;5029365;28;20267;-89
2022/10/08 09:34:47;;;;;;;5.63;4.13;;;20.00;99.90;22.20;97194.00;;;;5032531;28;20330;-89
2022/10/08 09:37:37;;;;;;;5.10;4.60;;;20.10;99.90;22.00;97186.00;;;;5024006;28;20197;-89
2022/10/08 09:40:30;;;;;;;5.87;4.17;;;20.20;99.90;22.50;97187.00;;;;5030401;28;20212;-89
2022/10/08 09:43:19;;;;;;;5.23;4.03;;;20.30;99.90;22.40;97187.00;;;;5032386;28;20690;-89
2022/10/08 09:46:29;;;;;;;4.83;4.33;;;20.40;99.90;22.20;97187.00;;;;5039763;28;20219;-89
2022/10/08 09:49:31;;;;;;;5.40;4.50;;;20.40;99.90;22.00;97186.00;;;;5039182;28;20197;-89
2022/10/08 09:52:25;;;;;;;5.40;4.60;;;20.30;99.90;21.90;97184.00;;;;5028692;28;20215;-90
2022/10/08 09:55:22;;;;;;;5.30;4.60;;;20.30;99.90;22.10;97183.00;;;;5029004;28;20201;-90
2022/10/08 09:58:18;;;;;;;4.87;4.37;;;20.30;99.90;22.10;97178.00;;;;5027512;28;20197;-90
2022/10/08 10:01:16;;;;;;;4.20;3.87;;;20.30;99.90;22.30;97167.00;;;;5033624;28;20208;-89
2022/10/08 10:04:05;;;;;;;4.73;4.33;;;20.40;99.90;22.90;97184.00;;;;5032780;28;20237;-89
2022/10/08 10:06:55;;;;;;;5.70;4.17;;;20.60;99.90;22.40;97188.00;;;;5029097;28;20220;-90
2022/10/08 10:09:48;;;;;;;5.93;4.43;;;20.10;99.90;22.40;97181.00;;;;5038453;28;20232;-90
2022/10/08 10:12:42;;;;;;;4.97;4.47;;;20.60;99.90;22.60;97168.00;;;;5025207;28;20193;-89
2022/10/08 10:15:37;;;;;;;4.97;4.33;;;20.60;99.90;23.00;97173.00;;;;5024840;28;20201;-89
2022/10/08 10:18:36;;;;;;;7.67;5.27;;;20.80;99.90;22.80;97175.00;;;;5026077;28;20295;-90
2022/10/08 10:21:39;;;;;;;5.40;4.57;;;20.90;99.90;23.70;97163.00;;;;5027258;28;21183;-89
2022/10/08 10:24:55;;;;;;;6.23;5.60;;;21.20;99.90;24.40;97151.00;;;;5030790;28;20248;-89
2022/10/08 10:27:59;;;;;;;6.33;4.60;;;21.70;99.90;24.80;97171.00;;;;5029208;28;20197;-90
2022/10/08 10:30:57;;;;;;;7.80;4.67;;;22.10;99.90;24.60;97177.00;;;;5029629;28;20228;-90
2022/10/08 10:33:54;;;;;;;5.70;5.17;;;22.40;99.90;24.20;97166.00;;;;5025135;28;20233;-90
2022/10/08 10:36:50;;;;;;;6.37;4.87;;;22.50;99.90;24.60;97158.00;;;;5028664;28;20283;-90
2022/10/08 10:39:49;;;;;;;6.87;5.40;;;22.50;99.90;25.40;97142.00;;;;5035304;28;20208;-90
2022/10/08 10:42:47;;;;;;;4.77;4.37;;;22.80;99.90;25.40;97153.00;;;;5022284;28;20662;-89
2022/10/08 10:45:43;;;;;;;5.73;4.63;;;23.30;99.90;25.10;97160.00;;;;5021039;28;20561;-90
2022/10/08 10:48:32;;;;;;;5.97;4.37;;;23.40;99.90;25.40;97155.00;;;;5021963;28;20290;-90
2022/10/08 10:51:44;;;;;;;4.73;4.30;;;23.50;99.90;25.40;97145.00;;;;5029018;28;20718;-90
2022/10/08 10:55:05;;;;;;;4.63;4.13;;;23.50;99.90;25.60;97145.00;;;;5040802;28;20304;-91
2022/10/08 10:58:14;;;;;;;6.57;4.97;;;23.60;99.90;25.70;97140.00;;;;5027600;28;20694;-90
2022/10/08 11:01:22;;;;;;;7.83;5.60;;;23.70;99.90;26.40;97137.00;;;;5027965;28;20226;-90
2022/10/08 11:04:31;;;;;;;7.17;4.97;;;23.90;99.90;26.50;97127.00;;;;5026156;28;20229;-90
2022/10/08 11:08:11;;;;;;;7.30;4.43;;;24.30;99.90;27.30;97128.00;;;;5025286;28;20207;-90
2022/10/08 11:11:15;;;;;;;5.80;4.73;;;24.70;99.90;26.90;97126.00;;;;5028779;28;20275;-90
2022/10/08 11:14:28;;;;;;;5.43;4.73;;;25.00;99.90;26.90;97122.00;;;;5023673;28;20219;-92
2022/10/08 11:17:49;;;;;;;5.67;4.70;;;25.10;99.90;27.30;97125.00;;;;5038246;28;20204;-91
2022/10/08 11:20:53;;;;;;;4.97;4.47;;;25.20;99.90;26.70;97120.00;;;;5028650;28;20225;-91
2022/10/08 11:24:19;;;;;;;7.40;5.53;;;25.10;97.50;27.30;97122.00;;;;5027509;28;20391;-91
2022/10/08 11:27:18;;;;;;;8.77;5.95;;;25.60;98.00;26.90;97121.00;;;;5030262;28;20455;-91
2022/10/08 11:30:13;;;;;;;7.13;5.77;;;25.50;96.70;26.90;97105.00;;;;5035255;28;20297;-91
2022/10/08 11:33:02;;;;;;;7.67;5.43;;;;;28.30;97104.00;;;;5029196;28;20206;-90
2022/10/08 11:36:13;;;;;;;5.37;4.87;;;25.70;97.50;28.20;97116.00;;;;5028305;28;20212;-91
2022/10/08 11:39:13;;;;;;;7.40;5.47;;;26.00;97.10;27.90;97123.00;;;;5028951;28;20317;-91
2022/10/08 11:42:15;;;;;;;9.60;4.67;;;26.00;95.80;27.70;97116.00;;;;5033670;28;20223;-91
2022/10/08 11:45:32;;;;;;;6.50;5.60;;;26.10;95.20;27.10;97095.00;;;;5031366;28;20236;-91
2022/10/08 11:48:32;;;;;;;6.53;4.47;;;26.00;94.30;27.50;97089.00;;;;5032361;28;20204;-91
2022/10/08 11:51:37;;;;;;;5.78;4.85;;;26.20;95.10;27.00;97090.00;;;;5031726;28;20316;-91
2022/10/08 11:54:33;;;;;;;5.60;5.10;;;26.20;93.80;26.20;97087.00;;;;5033863;28;20219;-96
2022/10/08 11:57:31;;;;;;;7.07;4.90;;;26.10;93.00;25.20;97079.00;;;;5035354;28;20215;-94
2022/10/08 12:00:39;;;;;;;5.90;5.17;;;26.40;95.20;25.20;97077.00;;;;5033980;28;20223;-90
2022/10/08 12:03:33;;;;;;;6.23;4.80;;;25.00;93.90;25.10;97078.00;;;;5032007;28;20231;-93
2022/10/08 12:06:26;;;;;;;7.63;4.07;;;24.70;94.90;26.00;97088.00;;;;5031502;28;20256;-91
2022/10/08 12:09:24;;;;;;;7.23;4.67;;;24.50;93.90;26.70;97081.00;;;;5037318;28;20265;-90
2022/10/08 12:12:16;;;;;;;4.53;3.97;;;24.70;94.90;25.20;97063.00;;;;5039360;28;20215;-91
2022/10/08 12:15:49;;;;;;;9.00;4.63;;;24.60;94.10;26.40;97085.00;;;;5032295;28;20646;-90
2022/10/08 12:18:46;;;;;;;5.20;4.17;;;25.00;94.30;27.60;97082.00;;;;5032655;28;20207;-91
2022/10/08 12:21:53;;;;;;;7.90;5.57;;;25.00;94.70;27.90;97070.00;;;;5030378;28;20224;-90
2022/10/08 12:24:55;;;;;;;4.43;3.80;;;25.40;94.40;28.50;97081.00;;;;5025867;28;20394;-90
2022/10/08 12:27:45;;;;;;;5.30;4.27;;;25.90;93.10;29.30;97049.00;;;;5052142;22;20272;-67
2022/10/08 12:30:48;;;;;;;6.03;3.97;;;26.40;92.90;30.40;97055.00;;;;5046908;28;20589;-67
2022/10/08 12:33:37;;;;;;;12.32;5.00;;;27.10;92.30;30.50;97060.00;;;;5043757;28;20200;-67
2022/10/08 12:36:45;;;;;;;5.38;4.22;;;27.60;91.60;30.20;97050.00;;;;5048068;28;20269;-67
2022/10/08 12:39:40;;;;;;;6.43;4.70;;;27.90;90.00;30.40;97073.00;;;;5047531;28;20618;-67
2022/10/08 12:42:35;;;;;;;4.97;4.40;;;28.10;90.00;29.60;97064.00;;;;5054017;28;20246;-67
2022/10/08 12:45:35;;;;;;;5.97;4.70;;;27.90;87.70;27.50;97053.00;;;;5052188;28;20277;-68
2022/10/08 12:48:37;;;;;;;6.93;4.40;;;27.50;86.20;28.70;97037.00;;;;5043837;28;20731;-67